Karasuk, Russia
Current Conditions -  °F | °C
As of 4:00 AM on Tuesday 21 Oct 2014 (Local Time) from UASP Reporting Station
Overcast Overcast  
Wind Chill: 24°   Ceiling: 2400
Heat Index: 37°   Visibility: 6mi
Dew Point: 27°   Wind: 36mph
Humidity: 65%   Direction: 250°WSW
Pressure: 29.53"   Gusts: NA
Location:  53.73°N, 78.03°E
Report Text: UASP 202100Z 25016MPS 9999 OVC024CB 03/M03 Q1000 R21/290160NOSIG RMK QFE739/0985
Loading
Personal Weather Stations






























Interactive Weather Map
Tropical Storm Tracking
New forecast layout! Learn more

10-Day Weather Forecast

Advertisements
Track Severe Weather on mobile